Time;durP1;ratioP1;P1;durP2;ratioP2;P2;SDS_P1;SDS_P2;PMS_P1;PMS_P2;Temp;Humidity;BMP_temperature;BMP_pressure;BME280_temperature;BME280_humidity;BME280_pressure;Samples;Min_cycle;Max_cycle;Signal;HPM_P1;HPM_P2
2022/07/25 00:00:08;;;;;;;10.32;7.90;;;;;;;27.13;65.18;98420.09;4999912;28;20026;-58
2022/07/25 00:02:33;;;;;;;10.10;7.77;;;;;;;27.14;64.90;98422.47;4997155;28;20084;-59
2022/07/25 00:04:59;;;;;;;9.65;7.65;;;;;;;26.98;65.07;98388.75;5002118;28;20022;-58
2022/07/25 00:07:25;;;;;;;9.82;8.23;;;;;;;27.08;65.00;98417.38;4999238;28;20436;-59
2022/07/25 00:09:51;;;;;;;9.35;7.93;;;;;;;27.09;64.15;98419.81;4999035;28;20052;-60
2022/07/25 00:12:16;;;;;;;9.98;7.93;;;;;;;27.07;64.04;98418.44;5000177;28;20521;-61
2022/07/25 00:14:41;;;;;;;10.35;7.75;;;;;;;26.96;64.09;98399.72;5000277;28;20672;-58
2022/07/25 00:17:07;;;;;;;9.18;8.02;;;;;;;26.92;63.01;98390.59;4997660;28;20283;-59
2022/07/25 00:19:32;;;;;;;9.93;7.20;;;;;;;26.93;62.99;98402.88;5001348;28;20477;-60
2022/07/25 00:21:58;;;;;;;9.70;7.65;;;;;;;27.03;62.82;98415.47;5000272;28;20038;-58
2022/07/25 00:24:23;;;;;;;8.85;7.60;;;;;;;27.01;62.93;98413.06;5002229;28;20049;-61
2022/07/25 00:26:48;;;;;;;11.23;7.45;;;;;;;26.99;62.73;98417.84;4999330;28;20030;-60
2022/07/25 00:29:14;;;;;;;9.63;7.03;;;;;;;26.88;62.34;98413.50;4998067;28;20113;-60
2022/07/25 00:31:39;;;;;;;8.10;6.95;;;;;;;26.92;61.92;98416.47;4998472;28;20631;-59
2022/07/25 00:34:05;;;;;;;12.10;7.22;;;;;;;26.90;62.56;98418.59;4999048;28;20034;-62
2022/07/25 00:36:30;;;;;;;9.95;7.82;;;;;;;26.82;62.80;98414.56;4998338;28;20439;-60
2022/07/25 00:38:55;;;;;;;9.80;7.07;;;;;;;26.69;61.58;98423.78;5014083;28;20496;-59
2022/07/25 00:41:21;;;;;;;8.75;6.50;;;;;;;26.68;61.98;98422.16;4999520;28;20034;-60
2022/07/25 00:43:46;;;;;;;10.38;7.13;;;;;;;26.57;61.19;98391.13;5000590;28;20014;-60
2022/07/25 00:46:13;;;;;;;9.70;6.78;;;;;;;26.66;61.28;98408.28;5000437;28;20480;-59
2022/07/25 00:48:39;;;;;;;11.32;6.78;;;;;;;26.78;61.11;98424.91;4982195;28;20054;-58
2022/07/25 00:51:05;;;;;;;9.63;6.85;;;;;;;26.75;61.42;98417.41;5000636;28;20117;-59
2022/07/25 00:53:31;;;;;;;9.38;7.63;;;;;;;26.72;63.10;98411.78;4994774;28;20053;-59
2022/07/25 00:55:56;;;;;;;10.43;7.20;;;;;;;26.83;63.18;98416.13;5012766;28;20084;-62
2022/07/25 00:58:21;;;;;;;10.30;7.95;;;;;;;26.77;65.32;98409.97;5001150;28;20033;-59
2022/07/25 01:00:47;;;;;;;12.60;8.23;;;;;;;26.73;65.93;98413.41;4999932;28;20030;-62
2022/07/25 01:03:12;;;;;;;10.18;8.50;;;;;;;26.83;66.92;98411.63;5002254;28;20058;-59
2022/07/25 01:05:38;;;;;;;10.35;8.25;;;;;;;26.78;66.88;98413.47;4999911;28;20064;-59
2022/07/25 01:08:04;;;;;;;10.13;8.50;;;;;;;26.77;65.89;98407.28;5000644;28;20026;-59
2022/07/25 01:10:32;;;;;;;11.80;7.95;;;;;;;26.76;66.46;98400.38;4999873;28;20488;-60
2022/07/25 01:12:58;;;;;;;9.40;7.22;;;;;;;26.59;65.80;98370.34;5000542;28;20026;-62
2022/07/25 01:15:25;;;;;;;11.30;7.97;;;;;;;26.80;66.50;98403.34;4997767;28;20502;-59
2022/07/25 01:17:50;;;;;;;10.50;7.57;;;;;;;26.76;67.07;98395.03;4999757;28;20014;-60
2022/07/25 01:20:20;;;;;;;10.45;8.20;;;;;;;26.64;67.57;98400.53;4999487;28;20050;-58
2022/07/25 01:22:46;;;;;;;10.90;8.38;;;;;;;26.32;68.01;98357.84;4998704;28;20026;-63
2022/07/25 01:25:13;;;;;;;11.05;8.95;;;;;;;26.56;68.10;98385.00;5000125;28;20028;-59
2022/07/25 01:27:39;;;;;;;10.85;8.65;;;;;;;26.50;68.72;98387.84;4982712;28;20023;-60
2022/07/25 01:30:06;;;;;;;11.13;8.50;;;;;;;26.31;68.84;98390.09;4999520;28;20108;-62
2022/07/25 01:32:32;;;;;;;10.15;9.15;;;;;;;26.27;69.10;98392.47;4983915;28;20014;-58
2022/07/25 01:34:57;;;;;;;9.63;8.63;;;;;;;26.14;69.85;98383.03;5000845;28;20033;-58
2022/07/25 01:37:23;;;;;;;11.20;8.90;;;;;;;26.24;70.46;98399.09;5000015;28;20026;-61
2022/07/25 01:39:48;;;;;;;10.88;9.23;;;;;;;26.38;70.64;98401.38;4999521;28;20025;-59
2022/07/25 01:42:14;;;;;;;11.45;8.90;;;;;;;26.43;70.64;98399.53;5001489;28;20030;-59
2022/07/25 01:44:39;;;;;;;10.57;8.60;;;;;;;26.06;69.23;98362.16;4997378;28;20676;-62
2022/07/25 01:47:05;;;;;;;12.40;9.02;;;;;;;26.37;68.30;98405.88;4981828;28;20029;-59
2022/07/25 01:49:30;;;;;;;10.65;8.20;;;;;;;26.20;67.31;98367.88;4992191;28;20038;-60
2022/07/25 01:51:56;;;;;;;10.35;8.43;;;;;;;26.45;67.38;98399.28;5000801;28;20037;-60
2022/07/25 01:54:21;;;;;;;13.35;8.50;;;;;;;26.45;68.13;98386.75;5000247;28;20420;-59
2022/07/25 01:56:46;;;;;;;15.23;8.45;;;;;;;26.47;68.83;98381.97;4992643;28;20041;-59
2022/07/25 01:59:12;;;;;;;12.35;8.65;;;;;;;26.54;68.61;98391.63;4999870;28;20441;-59
2022/07/25 02:01:37;;;;;;;10.43;9.05;;;;;;;26.46;69.38;98380.34;4999723;28;20879;-59
2022/07/25 02:04:03;;;;;;;11.18;8.60;;;;;;;26.45;69.51;98389.44;4995654;28;20087;-58
2022/07/25 02:06:29;;;;;;;12.10;8.48;;;;;;;26.49;70.40;98387.06;4999604;28;20033;-59
2022/07/25 02:08:54;;;;;;;11.23;8.57;;;;;;;26.53;69.77;98392.69;5000382;28;20382;-59
2022/07/25 02:11:19;;;;;;;12.85;8.68;;;;;;;26.38;72.10;98378.16;5000235;28;20516;-60
2022/07/25 02:13:46;;;;;;;15.55;9.75;;;;;;;26.08;72.73;98328.06;4999942;28;20061;-59
2022/07/25 02:16:12;;;;;;;12.73;9.68;;;;;;;26.22;71.90;98347.91;5001086;28;20315;-61
2022/07/25 02:18:37;;;;;;;10.93;9.27;;;;;;;26.44;72.22;98384.34;4999455;28;20470;-59
2022/07/25 02:21:06;;;;;;;11.52;8.55;;;;;;;26.32;70.97;98376.50;4997004;28;20022;-58
2022/07/25 02:23:32;;;;;;;12.52;9.68;;;;;;;26.38;70.85;98377.38;5000386;28;20041;-60
2022/07/25 02:25:58;;;;;;;12.93;9.82;;;;;;;26.38;72.00;98370.19;5001927;28;20025;-59
2022/07/25 02:28:23;;;;;;;11.30;9.55;;;;;;;26.31;72.34;98368.78;5000687;28;20025;-58
2022/07/25 02:30:48;;;;;;;11.38;9.82;;;;;;;26.19;73.21;98363.59;5001486;28;20028;-59
2022/07/25 02:33:14;;;;;;;11.07;9.77;;;;;;;26.23;73.19;98370.03;5000981;28;20034;-58
2022/07/25 02:35:39;;;;;;;12.95;10.07;;;;;;;26.25;73.27;98363.41;4998420;28;20041;-59
2022/07/25 02:38:05;;;;;;;12.07;9.75;;;;;;;26.22;73.92;98357.78;5001978;28;20481;-61
2022/07/25 02:40:30;;;;;;;10.85;9.18;;;;;;;26.16;72.73;98343.59;5004449;28;20030;-58
2022/07/25 02:42:55;;;;;;;12.13;9.00;;;;;;;26.12;73.16;98347.00;5003370;28;20473;-59
2022/07/25 02:45:21;;;;;;;11.15;9.90;;;;;;;26.19;73.70;98358.28;5003233;28;20041;-58
2022/07/25 02:47:47;;;;;;;11.15;9.57;;;;;;;26.14;73.82;98337.72;5000560;28;20026;-59
2022/07/25 02:50:12;;;;;;;11.85;9.88;;;;;;;26.30;72.97;98353.84;5002131;28;20028;-59
2022/07/25 02:52:38;;;;;;;10.73;8.70;;;;;;;26.23;73.01;98354.03;5002576;28;20096;-60
2022/07/25 02:55:03;;;;;;;12.30;9.30;;;;;;;26.13;72.97;98360.09;5003675;28;20089;-58
2022/07/25 02:57:29;;;;;;;10.68;9.57;;;;;;;26.00;73.55;98355.97;4998415;28;20464;-58
2022/07/25 02:59:54;;;;;;;11.15;9.50;;;;;;;25.95;73.56;98355.13;5001756;28;20040;-57
2022/07/25 03:02:19;;;;;;;10.75;9.32;;;;;;;25.99;73.05;98356.22;5003645;28;20114;-60
2022/07/25 03:04:45;;;;;;;13.18;9.93;;;;;;;26.03;72.75;98354.66;5003702;28;20064;-60
2022/07/25 03:07:10;;;;;;;11.10;9.60;;;;;;;26.00;72.85;98349.84;5002600;28;20026;-59
2022/07/25 03:09:35;;;;;;;12.20;9.63;;;;;;;26.00;72.74;98347.19;5001648;28;20021;-59
2022/07/25 03:12:01;;;;;;;11.52;9.32;;;;;;;26.11;72.51;98356.06;5003689;28;20113;-58
2022/07/25 03:14:26;;;;;;;12.65;9.80;;;;;;;26.16;72.54;98353.44;5001772;28;20106;-60
2022/07/25 03:16:52;;;;;;;11.32;9.38;;;;;;;26.15;72.09;98349.19;5003395;28;20097;-58
2022/07/25 03:19:17;;;;;;;9.95;8.80;;;;;;;26.15;72.26;98347.31;5003775;28;20042;-59
2022/07/25 03:21:44;;;;;;;10.65;8.90;;;;;;;26.08;71.44;98352.88;5002913;28;20025;-60
2022/07/25 03:24:09;;;;;;;11.07;8.90;;;;;;;26.04;72.01;98354.41;5002333;28;20119;-59
2022/07/25 03:26:34;;;;;;;12.65;9.48;;;;;;;26.11;71.14;98354.22;5001627;28;20633;-60
2022/07/25 03:29:00;;;;;;;11.18;8.40;;;;;;;26.19;70.70;98355.59;5002551;28;20018;-62
2022/07/25 03:31:25;;;;;;;11.85;8.57;;;;;;;25.98;70.99;98317.34;5002870;28;20432;-61
2022/07/25 03:33:50;;;;;;;12.73;8.82;;;;;;;26.15;70.75;98351.84;5003433;28;20029;-60
2022/07/25 03:36:16;;;;;;;10.32;8.88;;;;;;;25.96;70.93;98348.75;5000139;28;20504;-60
2022/07/25 03:38:41;;;;;;;10.13;9.05;;;;;;;25.92;71.42;98353.75;4999318;28;20083;-60
2022/07/25 03:41:07;;;;;;;12.68;8.73;;;;;;;25.99;70.64;98356.22;5002479;28;20026;-58
2022/07/25 03:43:32;;;;;;;10.57;8.38;;;;;;;26.03;71.18;98352.81;5003114;28;20022;-61
2022/07/25 03:45:57;;;;;;;10.70;8.45;;;;;;;25.93;71.24;98350.03;5003595;28;20385;-60
2022/07/25 03:48:23;;;;;;;11.23;9.43;;;;;;;25.92;71.38;98343.09;4998898;28;20026;-59
2022/07/25 03:50:48;;;;;;;13.15;9.02;;;;;;;25.85;71.83;98345.94;5001500;28;20537;-60
2022/07/25 03:53:13;;;;;;;13.80;9.18;;;;;;;25.82;70.93;98354.41;5003834;28;20057;-59
2022/07/25 03:55:39;;;;;;;10.25;8.55;;;;;;;25.84;69.99;98352.31;4999444;28;20698;-59
2022/07/25 03:58:04;;;;;;;11.90;8.80;;;;;;;25.81;71.50;98350.16;5002275;28;20018;-58
2022/07/25 04:00:30;;;;;;;10.93;8.82;;;;;;;25.80;71.19;98367.19;5001488;28;20037;-62
2022/07/25 04:02:55;;;;;;;12.85;9.10;;;;;;;25.55;71.70;98330.44;5002612;28;20030;-58
2022/07/25 04:05:21;;;;;;;13.20;9.13;;;;;;;25.51;71.97;98339.97;5034901;28;20026;-59
2022/07/25 04:07:46;;;;;;;11.10;8.90;;;;;;;25.66;71.61;98376.59;5000049;28;20488;-59
2022/07/25 04:10:11;;;;;;;11.48;9.40;;;;;;;25.77;71.24;98366.88;5003832;28;20512;-59
2022/07/25 04:12:37;;;;;;;13.02;8.45;;;;;;;25.86;70.93;98362.72;5001951;28;20029;-60
2022/07/25 04:15:03;;;;;;;12.13;8.80;;;;;;;25.84;70.88;98362.97;5003577;28;20030;-59
2022/07/25 04:17:29;;;;;;;11.43;8.13;;;;;;;25.85;70.45;98359.25;4999697;28;20036;-58
2022/07/25 04:19:54;;;;;;;9.98;8.63;;;;;;;25.60;70.96;98343.78;5002728;28;20030;-60
2022/07/25 04:22:20;;;;;;;9.68;8.30;;;;;;;25.78;71.51;98368.50;5002028;28;20460;-60
2022/07/25 04:24:45;;;;;;;10.25;9.23;;;;;;;25.80;71.25;98369.84;5000767;28;20064;-58
2022/07/25 04:27:10;;;;;;;11.48;9.05;;;;;;;25.76;71.58;98363.41;5001099;28;20029;-61
2022/07/25 04:29:36;;;;;;;10.93;9.13;;;;;;;25.87;71.85;98373.13;4999644;28;20022;-58
2022/07/25 04:32:01;;;;;;;9.90;8.48;;;;;;;25.82;71.69;98369.59;5002290;28;20703;-59
2022/07/25 04:34:27;;;;;;;9.50;8.50;;;;;;;25.86;71.70;98371.50;5001455;28;20026;-61
2022/07/25 04:36:52;;;;;;;10.10;8.73;;;;;;;25.67;70.68;98370.25;5002236;28;20710;-62
2022/07/25 04:39:18;;;;;;;9.57;7.78;;;;;;;25.70;70.25;98381.19;5002163;28;20061;-58
2022/07/25 04:41:43;;;;;;;9.00;8.02;;;;;;;25.73;69.60;98374.56;5001342;28;20036;-60
2022/07/25 04:44:08;;;;;;;10.10;8.38;;;;;;;25.81;69.05;98366.13;5002296;28;20029;-59
2022/07/25 04:46:34;;;;;;;9.95;8.02;;;;;;;25.80;69.08;98375.16;5001674;28;20022;-58
2022/07/25 04:49:00;;;;;;;11.40;8.88;;;;;;;25.85;69.39;98367.25;5001706;28;20519;-61
2022/07/25 04:51:25;;;;;;;10.57;8.13;;;;;;;25.87;69.81;98372.31;5001748;28;20048;-59
2022/07/25 04:53:50;;;;;;;12.00;8.60;;;;;;;25.61;69.71;98328.63;5000976;28;20718;-59
2022/07/25 04:56:16;;;;;;;10.45;9.10;;;;;;;25.86;70.02;98374.16;5002735;28;20083;-57
2022/07/25 04:58:41;;;;;;;9.32;8.32;;;;;;;25.82;69.92;98375.72;4994894;28;20032;-59
2022/07/25 05:01:07;;;;;;;10.82;8.95;;;;;;;25.77;70.56;98351.69;4994547;28;20023;-59
2022/07/25 05:03:32;;;;;;;11.05;8.98;;;;;;;25.96;70.83;98378.84;4993463;28;20092;-60
2022/07/25 05:05:58;;;;;;;9.98;8.82;;;;;;;26.02;71.56;98385.81;4994375;28;20516;-59
2022/07/25 05:08:23;;;;;;;11.40;9.48;;;;;;;26.07;71.52;98379.75;4996559;28;20705;-60
2022/07/25 05:10:49;;;;;;;12.00;9.25;;;;;;;25.95;71.95;98357.78;4993620;28;20022;-58
2022/07/25 05:13:15;;;;;;;12.50;9.35;;;;;;;26.14;70.97;98375.03;4996150;28;20046;-60
2022/07/25 05:15:40;;;;;;;10.05;8.88;;;;;;;26.10;71.39;98381.91;4994710;28;20129;-61
2022/07/25 05:18:06;;;;;;;13.43;8.73;;;;;;;25.97;71.28;98364.44;4997903;28;20131;-59
2022/07/25 05:20:31;;;;;;;12.50;8.73;;;;;;;26.10;70.72;98373.91;4996604;28;20038;-61
2022/07/25 05:22:56;;;;;;;10.75;8.70;;;;;;;25.97;70.61;98340.47;5000157;28;20476;-62
2022/07/25 05:25:22;;;;;;;10.63;8.75;;;;;;;26.15;70.59;98360.63;5001251;28;20026;-59
2022/07/25 05:27:47;;;;;;;12.07;8.98;;;;;;;26.11;70.96;98358.75;4999385;28;20543;-59
2022/07/25 05:30:13;;;;;;;11.23;8.80;;;;;;;26.17;70.92;98361.19;5000258;28;20022;-59
2022/07/25 05:32:40;;;;;;;12.93;8.85;;;;;;;26.19;70.71;98363.59;5000338;28;20033;-59
2022/07/25 05:35:06;;;;;;;11.68;8.82;;;;;;;26.12;71.27;98363.81;5001108;28;20497;-59
2022/07/25 05:37:34;;;;;;;11.35;9.07;;;;;;;25.97;71.47;98366.31;4997274;28;20037;-59
2022/07/25 05:40:00;;;;;;;11.93;9.27;;;;;;;26.05;72.55;98364.00;4980044;28;20058;-60
2022/07/25 05:42:25;;;;;;;12.60;8.93;;;;;;;25.99;72.85;98365.00;5000453;28;20184;-61
2022/07/25 05:44:51;;;;;;;11.57;9.77;;;;;;;26.06;73.63;98367.47;4994235;28;20481;-59
2022/07/25 05:47:16;;;;;;;14.50;9.82;;;;;;;26.11;73.70;98377.38;4999968;28;20033;-59
2022/07/25 05:49:42;;;;;;;13.25;10.25;;;;;;;26.11;74.68;98377.38;4998029;28;20452;-58
2022/07/25 05:52:07;;;;;;;11.07;9.65;;;;;;;26.14;74.30;98371.53;4998149;28;20030;-59
2022/07/25 05:54:33;;;;;;;11.90;9.88;;;;;;;25.81;75.83;98333.34;5000881;28;20034;-60
2022/07/25 05:57:00;;;;;;;13.32;9.48;;;;;;;26.11;75.80;98380.84;5010415;28;20041;-58
2022/07/25 05:59:25;;;;;;;11.63;10.02;;;;;;;26.15;76.23;98379.28;4995985;28;20026;-60
2022/07/25 06:01:50;;;;;;;12.60;10.38;;;;;;;26.00;76.40;98360.50;4999079;28;20079;-60
2022/07/25 06:04:16;;;;;;;12.25;10.35;;;;;;;26.17;75.65;98373.72;5001936;28;20160;-62
2022/07/25 06:06:41;;;;;;;13.30;10.02;;;;;;;26.09;75.59;98377.63;4998981;28;20032;-59
2022/07/25 06:09:07;;;;;;;13.13;10.35;;;;;;;26.17;76.11;98381.69;4999951;28;20032;-60
2022/07/25 06:11:32;;;;;;;14.80;11.23;;;;;;;26.06;77.28;98381.59;4992388;28;20514;-58
2022/07/25 06:13:58;;;;;;;12.32;10.25;;;;;;;26.15;77.53;98379.28;5000359;28;20026;-60
2022/07/25 06:16:23;;;;;;;12.40;10.27;;;;;;;26.16;76.25;98377.41;4996516;28;20550;-59
2022/07/25 06:18:49;;;;;;;13.45;10.55;;;;;;;26.14;76.10;98376.88;5003834;28;20420;-59
2022/07/25 06:21:14;;;;;;;14.32;11.05;;;;;;;26.20;76.79;98378.53;5003973;28;20026;-58
2022/07/25 06:23:39;;;;;;;13.25;10.70;;;;;;;26.26;76.31;98380.19;4999039;28;20034;-58
2022/07/25 06:26:09;;;;;;;20.23;10.93;;;;;;;26.23;76.86;98389.50;5002700;28;20026;-60
2022/07/25 06:28:35;;;;;;;14.02;10.77;;;;;;;26.39;76.02;98381.63;4987406;28;20029;-58
2022/07/25 06:31:00;;;;;;;12.07;10.75;;;;;;;26.38;76.23;98386.16;4998154;28;20018;-59
2022/07/25 06:33:26;;;;;;;13.18;10.43;;;;;;;26.36;75.29;98385.63;5001780;28;20033;-59
2022/07/25 06:35:51;;;;;;;12.73;10.63;;;;;;;26.33;74.94;98380.78;5004936;28;20534;-59
2022/07/25 06:38:17;;;;;;;11.55;10.35;;;;;;;26.27;74.33;98381.81;5003314;28;20064;-58
2022/07/25 06:40:42;;;;;;;11.57;9.77;;;;;;;26.33;74.45;98383.44;5004817;28;20045;-58
2022/07/25 06:43:07;;;;;;;11.85;10.63;;;;;;;26.32;74.30;98383.69;4990656;28;20766;-61
2022/07/25 06:45:33;;;;;;;12.15;10.25;;;;;;;26.36;74.60;98379.47;5000831;28;20105;-59
2022/07/25 06:47:58;;;;;;;11.18;10.07;;;;;;;26.38;74.29;98380.84;5000159;28;20370;-60
2022/07/25 06:50:24;;;;;;;16.30;10.98;;;;;;;26.39;74.36;98386.97;5003727;28;20026;-59
2022/07/25 06:52:49;;;;;;;11.68;10.48;;;;;;;26.34;74.23;98368.25;5001702;28;20026;-58
2022/07/25 06:55:15;;;;;;;11.52;9.95;;;;;;;26.35;73.67;98375.22;5003769;28;20658;-59
2022/07/25 06:57:41;;;;;;;12.88;10.10;;;;;;;26.42;73.17;98386.47;4995997;28;20093;-60
2022/07/25 07:00:10;;;;;;;14.35;10.82;;;;;;;26.37;73.33;98376.56;5018203;28;20088;-61
2022/07/25 07:02:57;;;;;;;14.75;10.63;;;;;;;26.47;72.01;98378.53;4985723;28;20076;-59
2022/07/25 07:05:23;;;;;;;12.02;10.25;;;;;;;26.59;72.21;98375.66;4998695;28;20038;-60
2022/07/25 07:07:49;;;;;;;11.80;9.70;;;;;;;26.53;70.42;98387.34;4998170;28;20550;-57
2022/07/25 07:10:16;;;;;;;14.55;10.65;;;;;;;26.44;71.03;98377.16;4985102;28;20033;-58
2022/07/25 07:12:42;;;;;;;13.18;10.07;;;;;;;26.36;70.94;98347.47;5002122;28;20044;-58
2022/07/25 07:15:08;;;;;;;13.10;9.57;;;;;;;26.55;70.49;98377.25;5004072;28;20567;-57
2022/07/25 07:17:33;;;;;;;13.57;10.35;;;;;;;26.63;70.37;98379.44;4996240;28;20567;-60
2022/07/25 07:19:59;;;;;;;14.38;10.05;;;;;;;26.58;70.66;98372.22;5001733;28;20084;-60
2022/07/25 07:22:24;;;;;;;11.00;9.85;;;;;;;26.68;70.86;98376.84;4997606;28;20034;-59
2022/07/25 07:24:49;;;;;;;12.77;9.48;;;;;;;26.66;71.14;98377.09;4998016;28;20033;-59
2022/07/25 07:27:15;;;;;;;11.40;9.60;;;;;;;26.69;71.03;98377.63;4999148;28;20147;-62
2022/07/25 07:29:40;;;;;;;11.93;9.80;;;;;;;26.79;71.26;98375.84;5000136;28;20034;-58
2022/07/25 07:32:06;;;;;;;12.68;10.27;;;;;;;26.79;71.47;98383.03;5000420;28;20014;-61
2022/07/25 07:34:32;;;;;;;12.05;10.13;;;;;;;26.70;70.49;98387.25;4999119;28;20167;-60
2022/07/25 07:36:57;;;;;;;12.30;10.45;;;;;;;26.72;70.54;98377.91;5000511;28;20530;-62
2022/07/25 07:39:23;;;;;;;12.07;10.02;;;;;;;26.74;70.00;98375.81;4996673;28;20433;-64
2022/07/25 07:41:48;;;;;;;11.60;9.93;;;;;;;26.68;69.91;98370.69;4983557;28;20038;-60
2022/07/25 07:44:13;;;;;;;12.57;9.73;;;;;;;26.72;69.80;98377.13;4999398;28;20397;-59
2022/07/25 07:46:39;;;;;;;11.10;9.85;;;;;;;26.87;69.96;98379.91;5000195;28;20917;-59
2022/07/25 07:49:04;;;;;;;12.43;9.70;;;;;;;26.96;70.53;98374.88;5001767;28;20022;-57
2022/07/25 07:51:30;;;;;;;12.65;10.15;;;;;;;26.74;69.98;98341.16;4998597;28;20037;-60
2022/07/25 07:56:40;;;;;;;11.77;10.30;;;;;;;27.77;67.24;98371.81;4999419;28;20041;-57
2022/07/25 07:59:06;;;;;;;11.93;10.20;;;;;;;27.84;66.41;98334.19;5016482;28;20176;-58
2022/07/25 08:01:31;;;;;;;12.95;9.32;;;;;;;27.96;65.65;98360.66;5000900;28;20037;-60
2022/07/25 08:03:57;;;;;;;13.43;10.18;;;;;;;27.80;66.02;98354.44;5000172;28;20556;-60
2022/07/25 08:06:22;;;;;;;12.15;10.73;;;;;;;28.37;64.51;98360.72;4998733;28;20135;-61
2022/07/25 08:08:48;;;;;;;11.73;10.38;;;;;;;28.38;62.06;98338.25;4991377;28;20428;-60
2022/07/25 08:11:13;;;;;;;13.85;9.82;;;;;;;28.69;62.56;98355.09;5000273;28;20030;-59
2022/07/25 08:13:39;;;;;;;12.73;9.40;;;;;;;28.86;62.40;98357.50;4992349;28;20026;-58
2022/07/25 08:16:05;;;;;;;11.57;9.52;;;;;;;28.98;60.69;98348.38;5000237;28;20022;-59
2022/07/25 08:18:31;;;;;;;10.32;9.32;;;;;;;29.13;61.14;98348.31;5000248;28;20026;-60
2022/07/25 08:20:58;;;;;;;12.63;9.98;;;;;;;29.11;61.36;98356.63;4998841;28;20032;-61
2022/07/25 08:23:26;;;;;;;15.10;9.15;;;;;;;29.22;61.43;98356.63;4983551;28;20117;-61
2022/07/25 08:25:52;;;;;;;11.85;10.00;;;;;;;29.60;61.12;98357.03;4994294;28;20044;-58
2022/07/25 08:28:17;;;;;;;13.32;9.48;;;;;;;29.67;60.49;98354.84;4998433;28;20033;-60
2022/07/25 08:30:43;;;;;;;13.75;9.85;;;;;;;29.72;59.21;98349.47;4999527;28;20262;-60
2022/07/25 08:33:12;;;;;;;14.30;9.55;;;;;;;29.78;58.17;98343.03;4998800;28;20029;-58
2022/07/25 08:35:38;;;;;;;13.10;10.05;;;;;;;29.86;57.47;98355.03;4984983;28;20034;-60
2022/07/25 08:38:04;;;;;;;13.50;10.38;;;;;;;29.92;57.65;98345.91;5000125;28;20029;-58
2022/07/25 08:40:30;;;;;;;11.00;9.10;;;;;;;29.99;57.78;98340.22;5000078;28;20030;-60
2022/07/25 08:42:57;;;;;;;11.07;8.52;;;;;;;30.02;56.65;98339.66;4999264;28;20053;-59
2022/07/25 08:45:23;;;;;;;13.10;9.90;;;;;;;30.02;57.22;98321.69;4999323;28;20034;-61
2022/07/25 08:47:51;;;;;;;12.05;9.48;;;;;;;30.23;56.73;98318.88;4981154;28;20032;-58
2022/07/25 08:50:19;;;;;;;12.45;9.90;;;;;;;30.55;56.31;98349.72;4984430;28;20057;-58
2022/07/25 08:52:49;;;;;;;12.00;9.15;;;;;;;30.91;55.17;98338.66;4985125;28;20026;-58
2022/07/25 08:55:18;;;;;;;11.25;9.40;;;;;;;30.93;54.86;98339.19;5001732;28;20022;-60
2022/07/25 08:57:46;;;;;;;11.05;8.38;;;;;;;31.02;54.21;98343.66;4990342;28;20111;-58
2022/07/25 09:00:17;;;;;;;11.73;9.27;;;;;;;31.23;53.86;98341.53;4979121;28;20079;-58
2022/07/25 09:02:42;;;;;;;10.55;8.45;;;;;;;31.51;52.65;98339.06;4967682;28;20029;-57
2022/07/25 09:05:08;;;;;;;10.13;8.63;;;;;;;31.52;52.71;98308.41;5000353;28;20030;-58
2022/07/25 09:07:38;;;;;;;11.45;9.05;;;;;;;31.16;52.62;98332.22;4995799;28;20089;-58
2022/07/25 09:10:13;;;;;;;10.07;8.07;;;;;;;30.72;53.67;98335.88;4978854;28;20029;-59
2022/07/25 09:12:39;;;;;;;10.00;7.68;;;;;;;31.04;51.53;98335.31;4998717;28;20076;-59
2022/07/25 09:15:05;;;;;;;12.32;8.63;;;;;;;31.38;50.01;98305.63;4997951;28;20113;-58
2022/07/25 09:17:30;;;;;;;9.05;7.45;;;;;;;32.08;48.96;98325.66;4997771;28;20037;-58
2022/07/25 09:19:56;;;;;;;10.18;7.88;;;;;;;32.29;48.13;98320.75;5001425;28;20688;-58
2022/07/25 09:22:22;;;;;;;10.75;7.43;;;;;;;31.68;46.94;98300.16;5001230;28;20503;-59
2022/07/25 09:24:48;;;;;;;18.88;8.88;;;;;;;31.86;47.35;98317.38;4997953;28;20026;-62
2022/07/25 09:27:14;;;;;;;10.00;7.40;;;;;;;31.98;46.73;98290.81;4975130;28;20031;-61
2022/07/25 09:29:43;;;;;;;10.05;7.00;;;;;;;31.91;44.64;98310.03;4986948;28;20033;-59
2022/07/25 09:32:16;;;;;;;11.35;7.53;;;;;;;32.38;44.40;98304.72;4994542;28;20057;-58
2022/07/25 09:34:44;;;;;;;9.32;6.90;;;;;;;32.51;43.74;98303.16;4991657;28;20493;-60
2022/07/25 09:37:11;;;;;;;9.65;6.63;;;;;;;32.86;42.77;98304.44;5002974;28;20077;-60
2022/07/25 09:39:41;;;;;;;10.80;7.03;;;;;;;32.55;42.85;98306.88;4989320;28;20030;-59
2022/07/25 09:42:24;;;;;;;8.95;7.03;;;;;;;32.08;43.93;98296.06;5011982;28;20026;-60
2022/07/25 09:44:59;;;;;;;9.60;7.22;;;;;;;31.96;44.50;98295.69;5016837;28;20033;-61
2022/07/25 09:47:25;;;;;;;9.32;6.60;;;;;;;31.72;45.07;98296.59;4995201;28;20024;-58
2022/07/25 09:49:51;;;;;;;10.68;7.50;;;;;;;31.38;45.19;98288.72;4995616;28;20026;-57
2022/07/25 09:52:16;;;;;;;12.15;7.63;;;;;;;31.28;45.96;98291.53;4993010;28;20026;-57
2022/07/25 09:54:42;;;;;;;11.27;7.45;;;;;;;30.87;46.44;98274.00;4997828;28;20507;-56
2022/07/25 09:57:08;;;;;;;10.73;7.50;;;;;;;30.58;49.14;98271.38;4998954;28;20248;-58
2022/07/25 09:59:34;;;;;;;10.13;7.32;;;;;;;30.39;48.05;98250.66;4982616;28;20117;-56
2022/07/25 10:02:07;;;;;;;10.68;6.90;;;;;;;30.90;46.81;98275.31;4996255;28;20539;-57
2022/07/25 10:05:12;;;;;;;9.30;7.03;;;;;;;30.78;45.03;98260.41;4983926;28;20109;-59
2022/07/25 10:07:39;;;;;;;10.30;6.95;;;;;;;30.60;45.97;98248.53;4992768;28;20069;-57
2022/07/25 10:10:05;;;;;;;8.90;7.15;;;;;;;30.65;48.32;98247.69;4983450;28;20026;-56
2022/07/25 10:12:30;;;;;;;9.40;7.15;;;;;;;30.89;48.90;98271.84;4995464;28;20036;-57
2022/07/25 10:15:10;;;;;;;9.52;7.13;;;;;;;31.11;47.75;98257.13;4999739;28;20064;-58
2022/07/25 10:17:36;;;;;;;9.50;6.97;;;;;;;31.20;47.84;98247.34;4998208;28;20028;-59
2022/07/25 10:20:05;;;;;;;9.00;6.80;;;;;;;31.24;45.76;98251.81;4996756;28;20487;-56
2022/07/25 10:22:41;;;;;;;10.90;7.85;;;;;;;31.22;45.62;98235.22;4996545;28;20140;-57
2022/07/25 10:25:12;;;;;;;9.10;6.90;;;;;;;31.29;46.18;98250.16;4994880;28;20104;-58
2022/07/25 10:27:49;;;;;;;9.85;7.43;;;;;;;31.18;45.92;98234.19;4999698;28;20010;-58
2022/07/25 10:30:20;;;;;;;10.80;6.90;;;;;;;31.10;46.88;98255.50;4978222;28;20034;-56
2022/07/25 10:32:50;;;;;;;9.07;6.80;;;;;;;31.12;46.99;98239.91;4999375;28;20056;-58
2022/07/25 10:35:16;;;;;;;9.18;7.00;;;;;;;31.04;45.29;98220.66;4993276;28;20038;-57
2022/07/25 10:37:44;;;;;;;10.15;6.93;;;;;;;31.39;44.65;98248.13;4982183;28;20064;-58
2022/07/25 10:40:09;;;;;;;10.15;7.07;;;;;;;31.27;45.41;98246.97;4996804;28;20445;-57
2022/07/25 10:42:35;;;;;;;9.75;7.03;;;;;;;31.41;45.54;98242.47;4995871;28;20022;-57
2022/07/25 10:45:01;;;;;;;8.48;7.00;;;;;;;31.43;46.39;98235.72;4998083;28;20576;-59
2022/07/25 10:47:27;;;;;;;9.65;6.70;;;;;;;31.55;46.42;98231.84;4997600;28;20026;-57
2022/07/25 10:49:57;;;;;;;9.23;6.80;;;;;;;31.61;44.95;98231.44;4998619;28;20036;-56
2022/07/25 10:52:27;;;;;;;10.02;7.47;;;;;;;31.69;45.52;98235.38;4999307;28;20036;-58
2022/07/25 10:54:53;;;;;;;9.73;6.95;;;;;;;31.73;46.36;98227.53;4996593;28;20033;-57
2022/07/25 10:57:19;;;;;;;10.88;7.20;;;;;;;31.61;45.29;98227.97;4998895;28;20041;-56
2022/07/25 10:59:45;;;;;;;10.07;7.28;;;;;;;31.64;43.00;98202.41;4980064;28;20041;-57
2022/07/25 11:02:18;;;;;;;9.02;7.55;;;;;;;31.60;43.51;98212.97;5002358;28;20698;-57
2022/07/25 11:04:45;;;;;;;13.23;6.55;;;;;;;31.97;42.10;98209.38;5001422;28;20044;-60
2022/07/25 11:07:16;;;;;;;8.75;6.78;;;;;;;32.28;39.44;98206.19;4996774;28;20018;-58
2022/07/25 11:09:42;;;;;;;9.48;7.35;;;;;;;32.33;39.60;98214.16;5001136;28;20029;-57
2022/07/25 11:12:09;;;;;;;10.02;7.10;;;;;;;32.49;39.58;98195.03;5003309;28;20129;-56
2022/07/25 11:14:42;;;;;;;13.95;6.90;;;;;;;32.55;39.47;98205.41;5002166;28;20038;-56
2022/07/25 11:17:17;;;;;;;9.57;6.78;;;;;;;32.57;37.82;98170.13;4993982;28;20042;-60
2022/07/25 11:19:52;;;;;;;11.32;7.50;;;;;;;32.61;38.38;98189.97;5002205;28;20034;-57
2022/07/25 11:22:17;;;;;;;9.13;6.95;;;;;;;32.67;38.64;98194.16;5002102;28;20022;-58